Time;durP1;ratioP1;P1;durP2;ratioP2;P2;SDS_P1;SDS_P2;PMS_P1;PMS_P2;Temp;Humidity;BMP_temperature;BMP_pressure;BME280_temperature;BME280_humidity;BME280_pressure;Samples;Min_cycle;Max_cycle;Signal;HPM_P1;HPM_P2
2022/10/27 00:01:09;;;;;;;39.40;19.92;;;;;;;;;;6240705;23;20016;-60
2022/10/27 00:03:37;;;;;;;40.33;19.30;;;;;;;;;;6239485;23;20028;-60
2022/10/27 00:06:10;;;;;;;49.10;21.70;;;;;;;;;;6240290;23;20091;-60
2022/10/27 00:08:37;;;;;;;47.15;21.60;;;;;;;;;;6239660;23;20016;-65
2022/10/27 00:11:11;;;;;;;54.17;23.65;;;;;;;;;;6240570;23;20548;-60
2022/10/27 00:13:38;;;;;;;46.47;21.45;;;;;;;;;;6239970;23;20024;-61
2022/10/27 00:16:07;;;;;;;56.45;23.13;;;;;;;;;;6239105;22;20078;-60
2022/10/27 00:18:47;;;;;;;56.85;24.13;;;;;;;;;;6240096;23;20030;-59
2022/10/27 00:21:16;;;;;;;62.70;24.40;;;;;;;;;;6238718;23;20023;-60
2022/10/27 00:23:50;;;;;;;66.97;26.05;;;;;;;;;;6238990;23;20533;-60
2022/10/27 00:26:18;;;;;;;58.83;24.17;;;;;;;;;;6240045;23;20304;-54
2022/10/27 00:28:45;;;;;;;55.40;24.08;;;;;;;;;;6239222;23;20099;-63
2022/10/27 00:31:21;;;;;;;54.92;25.05;;;;;;;;;;6229322;23;20024;-62
2022/10/27 00:33:49;;;;;;;65.63;25.83;;;;;;;;;;6239289;23;20020;-64
2022/10/27 00:36:24;;;;;;;63.92;26.70;;;;;;;;;;6240487;23;20529;-62
2022/10/27 00:38:58;;;;;;;64.68;25.33;;;;;;;;;;6239518;23;20020;-62
2022/10/27 00:41:37;;;;;;;59.67;27.35;;;;;;;;;;6238478;23;20480;-62
2022/10/27 00:44:23;;;;;;;60.90;27.55;;;;;;;;;;6239339;23;20467;-51
2022/10/27 00:46:57;;;;;;;71.63;28.85;;;;;;;;;;6238994;23;20112;-59
2022/10/27 00:49:34;;;;;;;60.28;26.75;;;;;;;;;;6240014;23;20024;-49
2022/10/27 00:52:13;;;;;;;61.47;27.80;;;;;;;;;;6238614;23;20024;-51
2022/10/27 00:54:41;;;;;;;51.22;25.35;;;;;;;;;;6240059;23;20026;-52
2022/10/27 00:57:15;;;;;;;67.97;27.77;;;;;;;;;;6214470;23;20016;-52
2022/10/27 00:59:42;;;;;;;73.82;30.02;;;;;;;;;;6239024;23;20028;-52
2022/10/27 01:02:10;;;;;;;66.38;30.20;;;;;;;;;;6238994;23;20020;-52
2022/10/27 01:04:50;;;;;;;78.80;30.45;;;;;;;;;;6238881;23;20024;-60
2022/10/27 01:07:18;;;;;;;80.25;29.95;;;;;;;;;;6239728;23;20430;-57
2022/10/27 01:09:53;;;;;;;97.28;34.47;;;;;;;;;;6238936;23;20020;-58
2022/10/27 01:12:20;;;;;;;82.55;31.70;;;;;;;;;;6240866;23;20146;-59
2022/10/27 01:14:48;;;;;;;89.28;33.47;;;;;;;;;;6239370;23;20027;-58
2022/10/27 01:17:45;;;;;;;109.05;37.85;;;;;;;;;;6238899;23;20043;-58
2022/10/27 01:20:51;;;;;;;85.45;33.75;;;;;;;;;;6238533;23;20059;-58
2022/10/27 01:23:40;;;;;;;109.55;35.58;;;;;;;;;;6163569;23;20024;-59
2022/10/27 01:26:07;;;;;;;96.63;37.03;;;;;;;;;;6240124;23;20043;-60
2022/10/27 01:28:56;;;;;;;116.32;39.67;;;;;;;;;;6239429;23;20020;-60
2022/10/27 01:31:27;;;;;;;117.82;39.63;;;;;;;;;;6238831;23;20415;-60
2022/10/27 01:34:14;;;;;;;168.35;44.60;;;;;;;;;;6238583;23;20035;-60
2022/10/27 01:36:42;;;;;;;135.20;42.05;;;;;;;;;;6240547;23;20036;-59
2022/10/27 01:39:19;;;;;;;146.95;44.40;;;;;;;;;;6238524;23;20107;-60
2022/10/27 01:41:49;;;;;;;173.35;47.85;;;;;;;;;;6238618;23;20335;-56
2022/10/27 01:44:36;;;;;;;179.20;46.42;;;;;;;;;;6239334;23;20020;-59
2022/10/27 01:47:03;;;;;;;148.35;45.58;;;;;;;;;;6238471;23;20299;-62
2022/10/27 01:49:37;;;;;;;141.15;44.20;;;;;;;;;;6239384;23;20016;-62
2022/10/27 01:52:27;;;;;;;183.45;48.90;;;;;;;;;;6237827;23;20027;-62
2022/10/27 01:55:01;;;;;;;146.60;42.30;;;;;;;;;;6238489;23;20477;-62
2022/10/27 01:57:38;;;;;;;172.93;46.58;;;;;;;;;;6238768;23;20028;-62
2022/10/27 02:00:13;;;;;;;149.60;44.63;;;;;;;;;;6224963;23;20020;-59
2022/10/27 02:02:46;;;;;;;153.23;46.45;;;;;;;;;;6237158;23;20016;-60
2022/10/27 02:05:36;;;;;;;254.25;53.47;;;;;;;;;;6239414;23;20020;-57
2022/10/27 02:08:19;;;;;;;140.20;40.97;;;;;;;;;;6240570;23;20103;-56
2022/10/27 02:10:57;;;;;;;165.70;47.53;;;;;;;;;;6238691;23;20487;-57
2022/10/27 02:13:31;;;;;;;184.00;45.33;;;;;;;;;;6239212;23;20016;-58
2022/10/27 02:16:06;;;;;;;223.40;51.53;;;;;;;;;;6237488;23;20098;-59
2022/10/27 02:18:50;;;;;;;172.52;47.35;;;;;;;;;;6238353;23;20062;-59
2022/10/27 02:21:19;;;;;;;177.55;49.70;;;;;;;;;;6240015;23;20022;-53
2022/10/27 02:23:53;;;;;;;203.73;50.88;;;;;;;;;;6238715;23;20028;-61
2022/10/27 02:26:27;;;;;;;200.18;53.35;;;;;;;;;;6239916;23;20016;-60
2022/10/27 02:29:06;;;;;;;206.20;53.90;;;;;;;;;;6238100;23;20020;-61
2022/10/27 02:31:35;;;;;;;211.43;53.50;;;;;;;;;;6239417;23;20048;-60
2022/10/27 02:34:09;;;;;;;177.88;51.03;;;;;;;;;;6239574;23;20020;-60
2022/10/27 02:36:36;;;;;;;186.95;50.97;;;;;;;;;;6239632;23;20016;-61
2022/10/27 02:39:10;;;;;;;195.20;53.10;;;;;;;;;;6239705;23;20349;-62
2022/10/27 02:41:38;;;;;;;208.52;55.13;;;;;;;;;;6240148;23;20020;-57
2022/10/27 02:44:05;;;;;;;196.77;51.67;;;;;;;;;;6239291;23;20095;-59
2022/10/27 02:46:38;;;;;;;182.02;51.63;;;;;;;;;;6237288;23;20022;-59
2022/10/27 02:49:09;;;;;;;205.77;51.95;;;;;;;;;;6239972;23;20062;-60
2022/10/27 02:51:36;;;;;;;222.63;56.00;;;;;;;;;;6238920;23;20017;-59
2022/10/27 02:54:10;;;;;;;182.98;49.17;;;;;;;;;;6237921;23;20099;-59
2022/10/27 02:56:37;;;;;;;216.63;54.38;;;;;;;;;;6239054;23;20024;-60
2022/10/27 02:59:11;;;;;;;256.95;57.45;;;;;;;;;;6238151;23;20024;-60
2022/10/27 03:01:39;;;;;;;201.20;53.22;;;;;;;;;;6238461;23;20020;-63
2022/10/27 03:04:06;;;;;;;183.05;52.25;;;;;;;;;;6238008;23;20028;-63
2022/10/27 03:06:40;;;;;;;175.10;51.63;;;;;;;;;;6238121;23;20020;-63
2022/10/27 03:09:08;;;;;;;159.32;47.15;;;;;;;;;;6238856;23;20063;-63
2022/10/27 03:11:42;;;;;;;133.57;43.85;;;;;;;;;;6237896;23;20020;-64
2022/10/27 03:14:12;;;;;;;145.60;44.60;;;;;;;;;;6239360;23;20024;-63
2022/10/27 03:16:39;;;;;;;163.88;48.50;;;;;;;;;;6238921;22;20503;-53
2022/10/27 03:19:13;;;;;;;146.65;45.50;;;;;;;;;;6238561;23;20024;-61
2022/10/27 03:21:41;;;;;;;142.75;44.00;;;;;;;;;;6239377;23;20016;-60
2022/10/27 03:24:14;;;;;;;164.32;46.47;;;;;;;;;;6240732;23;20024;-60
2022/10/27 03:26:42;;;;;;;122.72;41.28;;;;;;;;;;6238939;23;20026;-60
2022/10/27 03:29:15;;;;;;;156.75;45.47;;;;;;;;;;6240728;23;20024;-60
2022/10/27 03:31:42;;;;;;;153.15;41.88;;;;;;;;;;6239906;23;20540;-60
2022/10/27 03:34:17;;;;;;;208.48;49.20;;;;;;;;;;6239704;23;20026;-60
2022/10/27 03:36:47;;;;;;;110.10;37.97;;;;;;;;;;6241045;23;20027;-58
2022/10/27 03:39:14;;;;;;;136.23;38.17;;;;;;;;;;6240096;23;20432;-59
2022/10/27 03:41:47;;;;;;;138.55;39.90;;;;;;;;;;6239142;23;20016;-58
2022/10/27 03:44:14;;;;;;;103.85;33.83;;;;;;;;;;6240604;23;20024;-58
2022/10/27 03:46:48;;;;;;;143.27;38.67;;;;;;;;;;6239403;23;20382;-58
2022/10/27 03:49:15;;;;;;;142.38;38.72;;;;;;;;;;6240103;23;20027;-58
2022/10/27 03:51:43;;;;;;;120.20;37.72;;;;;;;;;;6240917;23;20016;-58
2022/10/27 03:54:16;;;;;;;134.80;37.88;;;;;;;;;;6239737;23;20477;-57
2022/10/27 03:56:44;;;;;;;129.13;36.53;;;;;;;;;;6239958;23;20099;-58
2022/10/27 03:59:17;;;;;;;126.63;36.75;;;;;;;;;;6240095;23;20028;-60
2022/10/27 04:01:51;;;;;;;112.07;35.97;;;;;;;;;;6239419;23;20082;-60
2022/10/27 04:04:29;;;;;;;108.65;35.28;;;;;;;;;;6240710;23;20078;-60
2022/10/27 04:06:56;;;;;;;111.88;35.55;;;;;;;;;;6240164;23;20016;-60
2022/10/27 04:09:23;;;;;;;120.72;35.05;;;;;;;;;;6241632;23;20031;-60
2022/10/27 04:11:57;;;;;;;119.88;35.05;;;;;;;;;;6239411;23;20350;-60
2022/10/27 04:14:25;;;;;;;101.78;32.58;;;;;;;;;;6240895;23;20097;-61
2022/10/27 04:17:05;;;;;;;109.93;32.58;;;;;;;;;;6240358;23;20016;-55
2022/10/27 04:19:39;;;;;;;89.93;31.67;;;;;;;;;;6238655;23;20027;-53
2022/10/27 04:22:13;;;;;;;110.57;34.47;;;;;;;;;;6225074;23;20054;-51
2022/10/27 04:24:41;;;;;;;92.68;32.92;;;;;;;;;;6239788;23;20032;-50
2022/10/27 04:27:08;;;;;;;;;;;;;;;;;;6240104;23;20020;-51
2022/10/27 04:29:48;;;;;;;92.90;29.05;;;;;;;;;;6238715;23;19922;-51
2022/10/27 04:32:15;;;;;;;93.15;30.77;;;;;;;;;;6238420;23;20321;-51
2022/10/27 04:34:49;;;;;;;105.45;33.75;;;;;;;;;;6239132;23;20024;-52
2022/10/27 04:37:16;;;;;;;79.97;29.33;;;;;;;;;;6239403;23;20023;-60
2022/10/27 04:39:44;;;;;;;99.18;30.85;;;;;;;;;;6239292;23;20353;-61
2022/10/27 04:42:17;;;;;;;90.75;30.33;;;;;;;;;;6240488;23;20354;-59
2022/10/27 04:44:45;;;;;;;100.53;28.95;;;;;;;;;;6237413;23;20094;-61
2022/10/27 04:47:18;;;;;;;105.95;33.20;;;;;;;;;;6237610;23;20060;-60
2022/10/27 04:49:46;;;;;;;89.13;29.00;;;;;;;;;;6211992;23;20046;-60
2022/10/27 04:52:13;;;;;;;82.63;26.55;;;;;;;;;;6238786;23;20099;-60
2022/10/27 04:54:46;;;;;;;89.47;28.65;;;;;;;;;;6236754;23;20020;-53
2022/10/27 04:57:13;;;;;;;96.32;29.15;;;;;;;;;;6238726;23;20112;-60
2022/10/27 04:59:47;;;;;;;86.18;27.98;;;;;;;;;;6239088;23;20028;-60
2022/10/27 05:02:15;;;;;;;85.35;26.10;;;;;;;;;;6239041;23;20020;-60
2022/10/27 05:04:49;;;;;;;99.45;28.60;;;;;;;;;;6239111;23;20020;-59
2022/10/27 05:07:16;;;;;;;96.72;28.10;;;;;;;;;;6240833;23;20060;-59
2022/10/27 05:09:43;;;;;;;109.70;28.98;;;;;;;;;;6238446;23;20131;-60
2022/10/27 05:12:17;;;;;;;76.90;27.83;;;;;;;;;;6239793;23;20357;-60
2022/10/27 05:14:45;;;;;;;81.50;26.35;;;;;;;;;;6240149;23;20342;-60
2022/10/27 05:17:25;;;;;;;80.25;26.08;;;;;;;;;;6238527;23;20024;-61
2022/10/27 05:19:52;;;;;;;72.85;26.00;;;;;;;;;;6239559;23;20267;-60
2022/10/27 05:22:27;;;;;;;93.32;25.65;;;;;;;;;;6240173;23;20063;-60
2022/10/27 05:24:54;;;;;;;63.50;22.75;;;;;;;;;;6239318;23;20020;-60
2022/10/27 05:27:21;;;;;;;67.47;23.42;;;;;;;;;;6240695;23;20523;-60
2022/10/27 05:29:55;;;;;;;67.07;22.67;;;;;;;;;;6240598;23;20098;-52
2022/10/27 05:32:22;;;;;;;62.97;20.35;;;;;;;;;;6238685;23;20020;-60
2022/10/27 05:34:56;;;;;;;75.07;21.67;;;;;;;;;;6237386;23;20533;-58
2022/10/27 05:37:23;;;;;;;68.05;21.92;;;;;;;;;;6239997;23;20024;-57
2022/10/27 05:39:50;;;;;;;60.70;21.45;;;;;;;;;;6239389;23;20473;-56
2022/10/27 05:42:23;;;;;;;93.60;24.50;;;;;;;;;;6239412;23;20111;-59
2022/10/27 05:44:55;;;;;;;72.57;21.95;;;;;;;;;;6239849;23;20020;-58
2022/10/27 05:47:29;;;;;;;68.78;20.20;;;;;;;;;;6238954;23;20020;-58
2022/10/27 05:49:57;;;;;;;70.07;21.70;;;;;;;;;;6238832;23;20024;-60
2022/10/27 05:52:24;;;;;;;67.00;20.05;;;;;;;;;;6240725;23;20027;-64
2022/10/27 05:54:57;;;;;;;62.25;19.85;;;;;;;;;;6237520;23;20043;-64
2022/10/27 05:57:25;;;;;;;80.68;21.13;;;;;;;;;;6239811;23;20023;-63
2022/10/27 05:59:58;;;;;;;62.90;19.88;;;;;;;;;;6239247;23;20350;-64
2022/10/27 06:02:26;;;;;;;68.85;21.33;;;;;;;;;;6238425;23;20020;-64
2022/10/27 06:04:53;;;;;;;61.90;18.52;;;;;;;;;;6238228;23;20024;-64
2022/10/27 06:07:26;;;;;;;67.25;17.52;;;;;;;;;;6240498;23;20043;-64
2022/10/27 06:09:54;;;;;;;64.35;17.50;;;;;;;;;;6239678;23;20024;-50
2022/10/27 06:12:27;;;;;;;73.38;17.38;;;;;;;;;;6238923;23;20410;-60
2022/10/27 06:14:55;;;;;;;51.75;16.42;;;;;;;;;;6239346;23;20102;-60
2022/10/27 06:17:22;;;;;;;51.63;16.92;;;;;;;;;;6240166;22;20765;-60
2022/10/27 06:20:02;;;;;;;69.50;18.15;;;;;;;;;;6238454;23;20350;-60
2022/10/27 06:22:29;;;;;;;64.50;17.25;;;;;;;;;;6240398;23;20062;-60
2022/10/27 06:25:04;;;;;;;53.65;15.93;;;;;;;;;;6237764;23;20099;-60
2022/10/27 06:27:31;;;;;;;60.95;17.15;;;;;;;;;;6240123;23;20708;-51
2022/10/27 06:29:58;;;;;;;69.47;16.85;;;;;;;;;;6239235;23;20358;-61
2022/10/27 06:32:31;;;;;;;71.63;15.90;;;;;;;;;;6239894;23;20492;-61
2022/10/27 06:35:03;;;;;;;64.13;17.92;;;;;;;;;;6237974;23;20024;-60
2022/10/27 06:37:37;;;;;;;55.53;15.27;;;;;;;;;;6239749;23;20024;-61
2022/10/27 06:40:05;;;;;;;57.53;15.55;;;;;;;;;;6238761;23;20028;-61
2022/10/27 06:42:34;;;;;;;48.22;14.82;;;;;;;;;;6239374;23;20027;-60
2022/10/27 06:45:28;;;;;;;65.18;15.88;;;;;;;;;;6237621;23;20023;-61
2022/10/27 06:48:00;;;;;;;64.75;14.85;;;;;;;;;;6240002;23;20020;-57
2022/10/27 06:50:35;;;;;;;60.70;14.27;;;;;;;;;;6240096;23;20106;-58
2022/10/27 06:53:02;;;;;;;63.47;15.55;;;;;;;;;;6239586;23;20181;-57
2022/10/27 06:55:36;;;;;;;64.32;14.20;;;;;;;;;;6240808;23;20525;-57
2022/10/27 06:58:03;;;;;;;54.85;12.60;;;;;;;;;;6241233;23;20024;-55
2022/10/27 07:00:30;;;;;;;69.55;12.85;;;;;;;;;;6240119;23;20107;-59
2022/10/27 07:03:08;;;;;;;50.78;10.88;;;;;;;;;;6241198;23;20024;-59
2022/10/27 07:05:36;;;;;;;58.13;11.95;;;;;;;;;;6241464;23;20111;-57
2022/10/27 07:08:04;;;;;;;52.97;12.57;;;;;;;;;;6240098;23;20388;-64
2022/10/27 07:10:38;;;;;;;53.53;11.35;;;;;;;;;;6242335;23;20024;-53
2022/10/27 07:13:05;;;;;;;60.58;11.15;;;;;;;;;;6241384;23;20027;-54
2022/10/27 07:15:38;;;;;;;58.25;11.98;;;;;;;;;;6239534;23;20017;-53
2022/10/27 07:18:18;;;;;;;61.97;13.02;;;;;;;;;;6239557;23;20020;-56
2022/10/27 07:20:53;;;;;;;53.58;11.05;;;;;;;;;;6216417;23;20130;-54
2022/10/27 07:23:26;;;;;;;56.05;9.88;;;;;;;;;;6241496;23;20024;-55
2022/10/27 07:26:00;;;;;;;61.67;11.32;;;;;;;;;;6240782;23;20024;-60
2022/10/27 07:28:34;;;;;;;54.67;10.07;;;;;;;;;;6240871;23;20107;-50
2022/10/27 07:31:02;;;;;;;45.63;9.27;;;;;;;;;;6240170;23;20111;-49
2022/10/27 07:33:29;;;;;;;59.58;10.77;;;;;;;;;;6240478;23;20016;-51
2022/10/27 07:36:04;;;;;;;53.05;9.32;;;;;;;;;;6240715;23;20425;-49
2022/10/27 07:38:31;;;;;;;44.35;8.15;;;;;;;;;;6240155;23;20102;-52
2022/10/27 07:41:05;;;;;;;53.03;10.02;;;;;;;;;;6240321;23;20028;-51
2022/10/27 07:43:34;;;;;;;;;;;;;;;;;;6241212;23;20030;-51
2022/10/27 07:46:01;;;;;;;59.13;9.70;;;;;;;;;;6239934;23;20006;-54
2022/10/27 07:48:34;;;;;;;61.90;9.80;;;;;;;;;;6215648;23;20062;-61
2022/10/27 07:51:02;;;;;;;53.92;10.63;;;;;;;;;;6241200;23;20028;-60
2022/10/27 07:53:35;;;;;;;65.82;9.80;;;;;;;;;;6240520;23;20024;-60
2022/10/27 07:56:03;;;;;;;54.78;8.80;;;;;;;;;;6239509;23;20030;-60
2022/10/27 07:58:30;;;;;;;50.30;9.65;;;;;;;;;;6240669;23;20324;-60
2022/10/27 08:01:05;;;;;;;69.50;9.88;;;;;;;;;;6239935;23;20102;-60
2022/10/27 08:03:33;;;;;;;67.80;8.88;;;;;;;;;;6240560;23;20024;-53
2022/10/27 08:06:11;;;;;;;54.97;9.65;;;;;;;;;;6241407;23;20024;-59
2022/10/27 08:08:38;;;;;;;53.38;9.63;;;;;;;;;;6238826;23;20115;-58
2022/10/27 08:11:05;;;;;;;60.92;9.90;;;;;;;;;;6239727;23;20020;-59
2022/10/27 08:13:39;;;;;;;65.28;8.95;;;;;;;;;;6241205;23;20024;-59
2022/10/27 08:16:07;;;;;;;51.92;8.07;;;;;;;;;;6241295;23;20020;-58
2022/10/27 08:18:54;;;;;;;57.45;8.32;;;;;;;;;;6240766;23;20633;-58
2022/10/27 08:21:28;;;;;;;73.88;10.85;;;;;;;;;;6239439;23;20026;-51
2022/10/27 08:24:03;;;;;;;58.28;9.45;;;;;;;;;;6237141;23;20030;-51
2022/10/27 08:26:31;;;;;;;59.45;8.55;;;;;;;;;;6240740;23;20793;-60
2022/10/27 08:28:58;;;;;;;64.00;9.52;;;;;;;;;;6239732;23;20256;-60
2022/10/27 08:31:31;;;;;;;63.42;9.57;;;;;;;;;;6241165;23;20024;-60
2022/10/27 08:33:59;;;;;;;70.53;9.68;;;;;;;;;;6240984;23;20016;-60
2022/10/27 08:36:37;;;;;;;60.25;9.02;;;;;;;;;;6240125;23;20608;-60
2022/10/27 08:39:05;;;;;;;62.35;10.05;;;;;;;;;;6240040;23;20023;-59
2022/10/27 08:41:40;;;;;;;65.15;8.90;;;;;;;;;;6239916;23;20026;-55
2022/10/27 08:44:26;;;;;;;60.38;10.15;;;;;;;;;;6239694;23;20028;-60
2022/10/27 08:47:03;;;;;;;59.53;8.77;;;;;;;;;;6239902;23;20046;-60
2022/10/27 08:49:36;;;;;;;52.35;8.68;;;;;;;;;;6241587;23;20106;-60
2022/10/27 08:52:17;;;;;;;54.53;9.38;;;;;;;;;;6238950;23;20020;-60
2022/10/27 08:54:57;;;;;;;57.70;8.57;;;;;;;;;;6240126;23;20020;-59
2022/10/27 08:57:32;;;;;;;48.30;7.40;;;;;;;;;;6240661;23;20394;-60
2022/10/27 09:00:06;;;;;;;49.53;8.88;;;;;;;;;;6239924;23;20020;-61
2022/10/27 09:03:02;;;;;;;66.50;8.98;;;;;;;;;;6241412;23;20099;-54
2022/10/27 09:05:29;;;;;;;48.42;8.43;;;;;;;;;;6240036;23;20020;-56
2022/10/27 09:08:06;;;;;;;52.72;8.38;;;;;;;;;;6239781;23;20024;-53
2022/10/27 09:10:44;;;;;;;47.75;8.05;;;;;;;;;;6240398;23;20473;-53
2022/10/27 09:13:42;;;;;;;49.35;7.93;;;;;;;;;;6239939;23;20142;-53
2022/10/27 09:16:13;;;;;;;49.72;8.20;;;;;;;;;;6238646;23;20020;-52
2022/10/27 09:18:47;;;;;;;;;;;;;;;;;;6240257;23;20024;-65
2022/10/27 09:21:22;;;;;;;56.33;8.70;;;;;;;;;;6239748;23;19916;-60
2022/10/27 09:23:59;;;;;;;53.92;9.15;;;;;;;;;;6239250;23;20020;-58
2022/10/27 09:26:28;;;;;;;47.22;6.75;;;;;;;;;;6238707;23;20020;-57
2022/10/27 09:28:59;;;;;;;50.38;7.68;;;;;;;;;;6238220;23;20099;-58
2022/10/27 09:31:36;;;;;;;52.33;7.82;;;;;;;;;;6239707;23;20024;-57
2022/10/27 09:34:09;;;;;;;50.90;7.40;;;;;;;;;;6238997;23;20531;-57
2022/10/27 09:36:42;;;;;;;42.55;7.93;;;;;;;;;;6240122;23;20099;-58
2022/10/27 09:39:10;;;;;;;54.17;7.78;;;;;;;;;;6238732;23;20030;-60
2022/10/27 09:41:37;;;;;;;58.50;7.22;;;;;;;;;;6239500;23;20027;-54
2022/10/27 09:44:37;;;;;;;54.10;7.40;;;;;;;;;;6238785;23;20751;-54
2022/10/27 09:47:04;;;;;;;52.17;7.13;;;;;;;;;;6232814;23;20101;-49
2022/10/27 09:49:39;;;;;;;45.28;7.07;;;;;;;;;;6239883;23;20024;-48
2022/10/27 09:52:15;;;;;;;54.25;7.68;;;;;;;;;;6237481;23;20095;-49
2022/10/27 09:54:56;;;;;;;42.33;7.72;;;;;;;;;;6239180;23;20020;-52
2022/10/27 09:57:32;;;;;;;49.38;7.25;;;;;;;;;;6213568;23;20406;-52
2022/10/27 10:00:08;;;;;;;45.75;7.25;;;;;;;;;;6239606;23;20020;-59
2022/10/27 10:02:52;;;;;;;41.45;7.60;;;;;;;;;;6240272;23;20026;-60
2022/10/27 10:05:28;;;;;;;51.67;8.68;;;;;;;;;;6240531;23;20082;-60
2022/10/27 10:08:24;;;;;;;48.92;7.68;;;;;;;;;;6240156;23;20023;-60
2022/10/27 10:10:59;;;;;;;47.08;6.85;;;;;;;;;;6238202;23;20026;-60
2022/10/27 10:13:30;;;;;;;48.83;7.45;;;;;;;;;;6237578;23;20099;-60
2022/10/27 10:16:15;;;;;;;45.60;6.53;;;;;;;;;;6238184;23;20020;-50
2022/10/27 10:19:01;;;;;;;48.50;7.03;;;;;;;;;;6239485;23;20038;-60
2022/10/27 10:21:52;;;;;;;48.47;7.32;;;;;;;;;;6239260;23;20286;-54
2022/10/27 10:24:52;;;;;;;43.58;6.78;;;;;;;;;;6238087;23;20016;-51
2022/10/27 10:27:31;;;;;;;50.10;6.82;;;;;;;;;;6237848;23;20023;-52
2022/10/27 10:30:05;;;;;;;40.75;7.10;;;;;;;;;;6238845;23;20020;-55
2022/10/27 10:32:34;;;;;;;39.33;7.43;;;;;;;;;;6240012;23;20038;-55
2022/10/27 10:35:26;;;;;;;36.05;6.95;;;;;;;;;;6239138;23;20090;-52
2022/10/27 10:37:54;;;;;;;44.33;6.88;;;;;;;;;;6239731;23;20020;-60
2022/10/27 10:40:31;;;;;;;43.70;6.60;;;;;;;;;;6239968;23;20107;-57
2022/10/27 10:43:06;;;;;;;47.28;7.10;;;;;;;;;;6238839;23;20021;-54
2022/10/27 10:45:40;;;;;;;45.25;7.25;;;;;;;;;;6237898;23;20062;-52
2022/10/27 10:48:27;;;;;;;40.13;6.10;;;;;;;;;;6240155;23;20051;-55
2022/10/27 10:51:01;;;;;;;50.63;7.60;;;;;;;;;;6238894;23;20060;-55
2022/10/27 10:53:29;;;;;;;47.95;7.75;;;;;;;;;;6239103;23;20455;-54
2022/10/27 10:56:05;;;;;;;41.40;6.57;;;;;;;;;;6239574;23;20051;-58
2022/10/27 10:58:34;;;;;;;40.70;6.10;;;;;;;;;;6239044;23;20021;-60
2022/10/27 11:01:08;;;;;;;44.03;7.00;;;;;;;;;;6239848;23;20032;-60
2022/10/27 11:03:39;;;;;;;41.75;6.97;;;;;;;;;;6239460;23;20095;-60
2022/10/27 11:06:21;;;;;;;46.22;7.72;;;;;;;;;;6225718;23;20032;-60
2022/10/27 11:09:01;;;;;;;45.53;7.05;;;;;;;;;;6238929;23;20473;-60
2022/10/27 11:11:39;;;;;;;47.20;7.00;;;;;;;;;;6237609;23;20127;-60
2022/10/27 11:14:11;;;;;;;37.20;6.00;;;;;;;;;;6238509;23;20022;-65
2022/10/27 11:16:49;;;;;;;41.92;5.88;;;;;;;;;;6238720;23;20347;-56
2022/10/27 11:19:23;;;;;;;28.40;5.60;;;;;;;;;;6238598;23;20059;-54
2022/10/27 11:21:59;;;;;;;43.53;7.30;;;;;;;;;;6237682;23;20099;-56
2022/10/27 11:24:53;;;;;;;49.03;6.65;;;;;;;;;;6238495;23;20547;-52
2022/10/27 11:27:23;;;;;;;40.80;6.63;;;;;;;;;;6238049;23;20381;-56
2022/10/27 11:30:14;;;;;;;45.85;6.95;;;;;;;;;;6239403;23;20024;-55
2022/10/27 11:32:41;;;;;;;38.58;6.70;;;;;;;;;;6238303;23;20051;-60
2022/10/27 11:35:28;;;;;;;39.03;6.65;;;;;;;;;;6239281;23;20030;-61
2022/10/27 11:38:04;;;;;;;47.35;6.95;;;;;;;;;;6241187;23;20020;-67
2022/10/27 11:40:48;;;;;;;39.92;6.55;;;;;;;;;;6240748;23;20024;-67
2022/10/27 11:43:24;;;;;;;35.15;6.75;;;;;;;;;;6238959;23;20043;-67
2022/10/27 11:46:06;;;;;;;43.17;6.43;;;;;;;;;;6240817;23;20020;-67
2022/10/27 11:48:39;;;;;;;42.05;6.47;;;;;;;;;;6241791;23;20020;-67
2022/10/27 11:51:16;;;;;;;48.13;6.22;;;;;;;;;;6240312;23;20028;-58
2022/10/27 11:53:43;;;;;;;40.70;6.60;;;;;;;;;;6240743;23;20020;-61
2022/10/27 11:56:33;;;;;;;41.28;6.85;;;;;;;;;;6238865;23;20091;-61
2022/10/27 11:59:17;;;;;;;46.42;6.63;;;;;;;;;;6240454;23;20132;-60
2022/10/27 12:01:51;;;;;;;37.20;5.68;;;;;;;;;;6240055;23;20654;-61
2022/10/27 12:04:24;;;;;;;37.72;6.88;;;;;;;;;;6239735;23;20462;-61
2022/10/27 12:07:13;;;;;;;45.05;6.43;;;;;;;;;;6240913;23;20027;-61
2022/10/27 12:10:06;;;;;;;36.60;6.65;;;;;;;;;;6239562;23;20422;-60
2022/10/27 12:12:45;;;;;;;42.22;7.20;;;;;;;;;;6190805;23;20028;-58
2022/10/27 12:15:13;;;;;;;41.78;6.45;;;;;;;;;;6226918;23;20046;-64
2022/10/27 12:17:43;;;;;;;51.38;7.05;;;;;;;;;;6240415;23;20030;-63
2022/10/27 12:20:39;;;;;;;42.08;6.03;;;;;;;;;;6239057;23;20024;-64
2022/10/27 12:23:33;;;;;;;42.80;6.57;;;;;;;;;;6239809;23;20055;-64
2022/10/27 12:26:19;;;;;;;42.47;6.30;;;;;;;;;;6239295;23;20476;-64
2022/10/27 12:28:46;;;;;;;43.33;6.50;;;;;;;;;;6241198;23;20024;-64
2022/10/27 12:31:22;;;;;;;36.58;6.35;;;;;;;;;;6239957;23;20095;-50
2022/10/27 12:33:55;;;;;;;38.85;5.82;;;;;;;;;;6240166;23;20032;-57
2022/10/27 12:36:35;;;;;;;42.75;7.00;;;;;;;;;;6238955;23;20103;-59
2022/10/27 12:39:10;;;;;;;41.63;7.20;;;;;;;;;;6240335;23;20055;-58
2022/10/27 12:42:00;;;;;;;40.15;5.95;;;;;;;;;;6239603;23;20122;-58
2022/10/27 12:44:31;;;;;;;44.22;7.07;;;;;;;;;;6237448;23;20051;-58
2022/10/27 12:47:23;;;;;;;45.92;7.10;;;;;;;;;;6238911;23;20416;-59
2022/10/27 12:50:04;;;;;;;39.75;6.10;;;;;;;;;;6239304;23;20032;-58
2022/10/27 12:52:47;;;;;;;54.67;8.23;;;;;;;;;;6240822;23;20016;-64
2022/10/27 12:55:35;;;;;;;45.10;7.55;;;;;;;;;;6237904;23;20027;-64
2022/10/27 12:58:18;;;;;;;47.45;7.45;;;;;;;;;;6240124;23;20020;-64
2022/10/27 13:00:49;;;;;;;45.80;7.50;;;;;;;;;;6239300;23;20028;-64
2022/10/27 13:03:23;;;;;;;39.45;7.18;;;;;;;;;;6239546;23;20082;-64
2022/10/27 13:06:10;;;;;;;45.00;7.28;;;;;;;;;;6240876;23;20020;-63
2022/10/27 13:08:53;;;;;;;39.42;6.85;;;;;;;;;;6240551;23;20024;-58
2022/10/27 13:11:23;;;;;;;43.22;7.35;;;;;;;;;;6240139;23;20024;-58
2022/10/27 13:14:07;;;;;;;48.92;7.45;;;;;;;;;;6240356;23;20022;-59
2022/10/27 13:16:46;;;;;;;46.65;7.07;;;;;;;;;;6239123;23;20030;-59
2022/10/27 13:19:41;;;;;;;47.63;7.43;;;;;;;;;;6238215;23;20016;-59
2022/10/27 13:22:23;;;;;;;53.63;7.38;;;;;;;;;;6240385;23;20672;-59
2022/10/27 13:25:03;;;;;;;42.42;7.13;;;;;;;;;;6238807;23;20357;-59
2022/10/27 13:27:39;;;;;;;44.78;7.85;;;;;;;;;;6240060;23;20024;-65
2022/10/27 13:30:19;;;;;;;41.65;7.10;;;;;;;;;;6239811;23;20031;-55
2022/10/27 13:32:47;;;;;;;44.58;6.90;;;;;;;;;;6239760;23;20024;-54
2022/10/27 13:35:28;;;;;;;52.72;7.68;;;;;;;;;;6229225;23;20020;-53
2022/10/27 13:37:58;;;;;;;45.90;6.50;;;;;;;;;;6239394;23;20046;-53
2022/10/27 13:40:34;;;;;;;54.33;6.95;;;;;;;;;;6239845;23;20107;-54
2022/10/27 13:43:20;;;;;;;55.60;7.72;;;;;;;;;;6239858;23;20046;-54
2022/10/27 13:45:54;;;;;;;51.05;7.88;;;;;;;;;;6239263;23;20051;-60
2022/10/27 13:48:21;;;;;;;44.20;7.15;;;;;;;;;;6238445;23;20034;-67
2022/10/27 13:50:50;;;;;;;49.13;6.53;;;;;;;;;;6238525;23;20111;-58
2022/10/27 13:53:25;;;;;;;61.35;7.85;;;;;;;;;;6239445;23;20030;-58
2022/10/27 13:55:53;;;;;;;37.50;6.05;;;;;;;;;;6238728;23;20030;-59
2022/10/27 13:58:33;;;;;;;53.40;7.50;;;;;;;;;;6238165;23;20350;-59
2022/10/27 14:01:20;;;;;;;53.28;7.95;;;;;;;;;;6238811;23;20024;-59
2022/10/27 14:03:57;;;;;;;46.60;8.32;;;;;;;;;;6238019;23;20028;-59
2022/10/27 14:06:29;;;;;;;48.53;8.32;;;;;;;;;;6240149;23;20102;-59
2022/10/27 14:09:15;;;;;;;42.00;6.80;;;;;;;;;;6239231;23;20051;-61
2022/10/27 14:11:46;;;;;;;44.83;7.20;;;;;;;;;;6234976;23;20103;-61
2022/10/27 14:14:20;;;;;;;57.57;7.50;;;;;;;;;;6213320;23;20024;-61
2022/10/27 14:16:47;;;;;;;48.78;7.30;;;;;;;;;;6237018;23;20024;-61
2022/10/27 14:19:29;;;;;;;52.25;7.68;;;;;;;;;;6237698;23;20020;-61
2022/10/27 14:21:57;;;;;;;52.25;8.07;;;;;;;;;;6237403;23;20517;-61
2022/10/27 14:24:37;;;;;;;60.15;8.13;;;;;;;;;;6238089;23;20016;-51
2022/10/27 14:27:05;;;;;;;60.42;8.48;;;;;;;;;;6235951;23;20026;-57
2022/10/27 14:29:39;;;;;;;44.80;7.57;;;;;;;;;;6238332;23;20016;-55
2022/10/27 14:32:18;;;;;;;50.97;7.70;;;;;;;;;;6237170;23;20024;-56
2022/10/27 14:34:53;;;;;;;48.50;8.93;;;;;;;;;;6238206;23;20020;-57
2022/10/27 14:37:30;;;;;;;52.90;7.78;;;;;;;;;;6237730;23;20024;-57
2022/10/27 14:40:04;;;;;;;52.78;8.35;;;;;;;;;;6237710;23;20020;-56
2022/10/27 14:42:32;;;;;;;52.20;7.50;;;;;;;;;;6237083;23;20026;-59
2022/10/27 14:45:26;;;;;;;46.75;7.75;;;;;;;;;;6238695;23;20095;-55
2022/10/27 14:47:53;;;;;;;46.58;7.85;;;;;;;;;;6236893;23;20026;-62
2022/10/27 14:50:30;;;;;;;47.20;7.75;;;;;;;;;;6237655;23;20338;-61
2022/10/27 14:53:02;;;;;;;55.03;7.90;;;;;;;;;;6237865;23;20024;-61
2022/10/27 14:55:37;;;;;;;56.05;8.85;;;;;;;;;;6238359;23;20059;-61
2022/10/27 14:58:05;;;;;;;61.00;9.77;;;;;;;;;;6237838;23;20575;-61
2022/10/27 15:00:39;;;;;;;59.33;8.90;;;;;;;;;;6237462;23;20505;-61
2022/10/27 15:03:10;;;;;;;64.30;9.15;;;;;;;;;;6237768;23;20103;-67